Akebono — JG5644 — position and weather

sailwx.info

Track history (hours):
 
Tides and Currents Weather Stations Pressure Air Temp Water Temp Dewpoint Dewpoint Depression Visibility Wind Speed Wind Dir Waves Ship Positions

Akebono

Last reported at 2016-Aug-25 09:33 UTC. Time now 2016-Aug-25 09:45 UTC.
Position N 35°35' E 140°04'.

Length 33 m; draft 4.4 m.

Type: Tug. MMSI: 431000233.

Date/timePositionNaut miles runAvg speedWind from/ knotsBaromVisibWave heightAir tempDewpointWater temp
2016-Aug-25 09:33N 35°35' E 140°04'2 2.0
2016-Aug-25 08:33N 35°34' E 140°02'1 0.9
2016-Aug-25 07:33N 35°35' E 140°01'6 5.9
2016-Aug-25 06:33N 35°40' E 139°59'1 0.5
2016-Aug-25 04:33N 35°40' E 139°60'0 0.0
2016-Aug-25 03:33N 35°40' E 139°60'7 7.3
2016-Aug-25 02:34N 35°32' E 139°59'3 3.0
2016-Aug-25 01:33N 35°30' E 140°01'1 1.0
2016-Aug-25 00:33N 35°31' E 140°01'3 2.6
2016-Aug-24 23:33N 35°33' E 140°02'4 3.7
2016-Aug-24 22:33N 35°35' E 140°06'3 3.4
2016-Aug-24 21:33N 35°34' E 140°02'2 1.7
2016-Aug-24 20:33N 35°35' E 140°03'3 2.7
2016-Aug-24 19:33N 35°36' E 140°06'0 0.0
2016-Aug-24 18:33N 35°36' E 140°06'0 0.0
2016-Aug-24 17:33N 35°36' E 140°06'0 0.0
2016-Aug-24 16:33N 35°36' E 140°06'0 0.0
2016-Aug-24 15:33N 35°36' E 140°06'0 0.0
2016-Aug-24 14:33N 35°36' E 140°06'0 0.0
2016-Aug-24 13:33N 35°36' E 140°06'0 0.0
2016-Aug-24 12:33N 35°36' E 140°06'0 0.0
2016-Aug-24 11:33N 35°36' E 140°06'0 0.0
2016-Aug-24 10:33N 35°36' E 140°06'0 0.0
2016-Aug-24 09:33N 35°36' E 140°06'0 0.0
2016-Aug-24 08:33N 35°36' E 140°06'0 0.0
2016-Aug-24 07:33N 35°36' E 140°06'0 0.0
2016-Aug-24 06:33N 35°36' E 140°06'0 0.2
2016-Aug-24 04:33N 35°36' E 140°07'0 0.0
2016-Aug-24 03:33N 35°36' E 140°07'0 0.0
2016-Aug-24 02:33N 35°36' E 140°07'0 0.0
2016-Aug-24 01:33N 35°36' E 140°07'2 1.7
2016-Aug-24 00:33N 35°36' E 140°05'5 5.1
2016-Aug-23 23:33N 35°33' E 139°59'6 5.9
2016-Aug-23 22:33N 35°36' E 140°05'2 1.8
2016-Aug-23 21:33N 35°35' E 140°04'2 2.2
2016-Aug-23 20:33N 35°36' E 140°06'0 0.2
2016-Aug-23 19:33N 35°36' E 140°06'0 0.0
2016-Aug-23 18:33N 35°36' E 140°06'0 0.0
2016-Aug-23 17:33N 35°36' E 140°06'0 0.0
2016-Aug-23 16:33N 35°36' E 140°06'0 0.0
2016-Aug-23 15:33N 35°36' E 140°06'0 0.0
2016-Aug-23 14:33N 35°36' E 140°06'0 0.0
2016-Aug-23 13:33N 35°36' E 140°06'0 0.0
2016-Aug-23 12:33N 35°36' E 140°06'0 0.0
2016-Aug-23 11:33N 35°36' E 140°06'0 0.0
2016-Aug-23 10:33N 35°36' E 140°06'0 0.0
2016-Aug-23 09:33N 35°36' E 140°06'4 3.8
2016-Aug-23 08:33N 35°33' E 140°04'1 0.9
2016-Aug-23 07:33N 35°32' E 140°03'1 0.5
2016-Aug-23 06:33N 35°32' E 140°02'0 0.0
2016-Aug-23 05:33N 35°32' E 140°02'0 0.0
2016-Aug-23 04:33N 35°32' E 140°02'0 0.0
2016-Aug-23 03:33N 35°32' E 140°02'0 0.1
2016-Aug-23 02:33N 35°32' E 140°02'3 2.6
2016-Aug-23 01:33N 35°30' E 140°01'0 0.3
2016-Aug-23 00:33N 35°30' E 140°01'3 2.9
2016-Aug-22 23:33N 35°33' E 140°02'3 3.4
2016-Aug-22 22:33N 35°36' E 140°04'2 1.7
2016-Aug-22 21:34N 35°36' E 140°06'0 0.2
2016-Aug-22 20:33N 35°36' E 140°06'0 0.0
2016-Aug-22 19:33N 35°36' E 140°06'0 0.0
2016-Aug-22 18:33N 35°36' E 140°06'0 0.0
2016-Aug-22 17:33N 35°36' E 140°06'0 0.0
2016-Aug-22 16:33N 35°36' E 140°06'0 0.0
2016-Aug-22 15:33N 35°36' E 140°06'0 0.0
2016-Aug-22 14:33N 35°36' E 140°06'0 0.0
2016-Aug-22 13:34N 35°36' E 140°06'0 0.0
2016-Aug-22 11:19N 35°36' E 140°06'0 0.0
2016-Aug-22 10:33N 35°36' E 140°06'4 3.8
2016-Aug-22 09:33N 35°32' E 140°06'0 0.0
2016-Aug-22 08:33N 35°32' E 140°06'0 0.1
2016-Aug-22 07:33N 35°32' E 140°06'0 0.0
2016-Aug-22 06:33N 35°32' E 140°06'0 0.0
2016-Aug-22 05:33N 35°32' E 140°06'0 0.1
2016-Aug-22 04:33N 35°32' E 140°06'0 0.0
2016-Aug-22 03:33N 35°32' E 140°06'0 0.0
2016-Aug-22 02:33N 35°32' E 140°06'0 0.0
2016-Aug-22 01:33N 35°32' E 140°06'0 0.0
2016-Aug-22 00:34N 35°32' E 140°06'0 0.0
2016-Aug-21 23:34N 35°32' E 140°06'4 3.5
2016-Aug-21 22:33N 35°36' E 140°06'0 0.2
2016-Aug-21 21:34N 35°36' E 140°06'0 0.0
2016-Aug-21 20:33N 35°36' E 140°06'0 0.0
2016-Aug-21 19:33N 35°36' E 140°06'0 0.0
2016-Aug-21 18:34N 35°36' E 140°06'0 0.0
2016-Aug-21 17:33N 35°36' E 140°06'0 0.0
2016-Aug-21 16:33N 35°36' E 140°06'0 0.0
2016-Aug-21 15:34N 35°36' E 140°06'0 0.0
2016-Aug-21 14:33N 35°36' E 140°06'0 0.0
2016-Aug-21 13:34N 35°36' E 140°06'0 0.0
2016-Aug-21 12:33N 35°36' E 140°06'0 0.0
2016-Aug-21 11:34N 35°36' E 140°06'0 0.0
2016-Aug-21 10:33N 35°36' E 140°06'0 0.0
2016-Aug-21 09:34N 35°36' E 140°06'0 0.0
2016-Aug-21 08:34N 35°36' E 140°06'6 6.0
2016-Aug-21 07:33N 35°31' E 140°02'6 6.4
2016-Aug-21 06:34N 35°29' E 139°55'0 0.0
2016-Aug-21 05:34N 35°29' E 139°55'0 0.1
2016-Aug-21 04:34N 35°29' E 139°55'0 0.0
2016-Aug-21 03:34N 35°29' E 139°55'0 0.0
2016-Aug-21 02:34N 35°29' E 139°55'0 0.0
2016-Aug-21 01:33N 35°29' E 139°55'4 4.3
2016-Aug-21 00:33N 35°33' E 139°57'7 7.1
2016-Aug-20 23:33N 35°40' E 139°59'7 6.7
2016-Aug-20 22:33N 35°36' E 140°06'0 0.1
2016-Aug-20 21:33N 35°36' E 140°06'0 0.0
2016-Aug-20 20:33N 35°36' E 140°06'0 0.0
2016-Aug-20 19:33N 35°36' E 140°06'0 0.0
2016-Aug-20 18:33N 35°36' E 140°06'0 0.0
2016-Aug-20 17:33N 35°36' E 140°06'0 0.0
2016-Aug-20 16:33N 35°36' E 140°06'0 0.0
2016-Aug-20 15:33N 35°36' E 140°06'0 0.0
2016-Aug-20 14:33N 35°36' E 140°06'0 0.0
2016-Aug-20 13:33N 35°36' E 140°06'0 0.0
2016-Aug-20 12:33N 35°36' E 140°06'0 0.0
2016-Aug-20 07:33N 35°36' E 140°06'5 5.4
2016-Aug-20 06:33N 35°33' E 140°01'6 5.6
2016-Aug-20 05:33N 35°28' E 139°58'2 1.6
2016-Aug-20 04:33N 35°29' E 139°57'0 0.5
2016-Aug-20 03:33N 35°29' E 139°57'0 0.0
2016-Aug-20 02:33N 35°29' E 139°57'0 0.0
2016-Aug-20 01:33N 35°29' E 139°57'0 0.0
2016-Aug-20 00:33N 35°29' E 139°57'1 1.3
2016-Aug-19 23:33N 35°28' E 139°58'1010.0
2016-Aug-19 22:33N 35°35' E 140°06'1 0.7
2016-Aug-19 21:33N 35°36' E 140°06'0 0.0
2016-Aug-19 20:33N 35°36' E 140°06'0 0.0
2016-Aug-19 19:33N 35°36' E 140°06'0 0.0
2016-Aug-19 18:33N 35°36' E 140°06'0 0.0
2016-Aug-19 17:33N 35°36' E 140°06'0 0.0
2016-Aug-19 16:33N 35°36' E 140°06'0 0.0
2016-Aug-19 15:34N 35°36' E 140°06'0 0.0
2016-Aug-19 14:33N 35°36' E 140°06'0 0.0
2016-Aug-19 10:33N 35°36' E 140°06'1 1.3
2016-Aug-19 09:33N 35°35' E 140°05'1 1.1
2016-Aug-19 08:33N 35°36' E 140°05'2 1.6
2016-Aug-19 07:33N 35°35' E 140°04'0 0.0
2016-Aug-19 06:33N 35°35' E 140°04'0 0.0
2016-Aug-19 05:33N 35°35' E 140°04'0 0.0
2016-Aug-19 04:33N 35°35' E 140°04'0 0.0
2016-Aug-19 03:32N 35°35' E 140°04'0 0.0
2016-Aug-19 02:33N 35°35' E 140°04'3 2.8
2016-Aug-19 01:33N 35°32' E 140°05'2 2.5
2016-Aug-19 00:33N 35°34' E 140°03'4 3.7
2016-Aug-18 23:33N 35°36' E 140°06'0 0.0
2016-Aug-18 22:33N 35°36' E 140°06'0 0.0
2016-Aug-18 21:33N 35°36' E 140°06'0 0.0
2016-Aug-18 20:33N 35°36' E 140°06'0 0.0
2016-Aug-18 19:33N 35°36' E 140°06'0 0.0
2016-Aug-18 18:33N 35°36' E 140°06'0 0.0
2016-Aug-18 17:33N 35°36' E 140°06'0 0.0
2016-Aug-18 16:34N 35°36' E 140°06'0 0.0
2016-Aug-18 15:33N 35°36' E 140°06'0 0.0
2016-Aug-18 14:33N 35°36' E 140°06'0 0.0
2016-Aug-18 13:33N 35°36' E 140°06'0 0.0
2016-Aug-18 12:33N 35°36' E 140°06'0 0.0
2016-Aug-18 11:33N 35°36' E 140°06'0 0.0
2016-Aug-18 10:33N 35°36' E 140°06'0 0.0
2016-Aug-18 09:33N 35°36' E 140°06'0 0.0
2016-Aug-18 08:33N 35°36' E 140°06'0 0.0
2016-Aug-18 07:34N 35°36' E 140°06'0 0.0
2016-Aug-18 06:33N 35°36' E 140°06'0 0.0
2016-Aug-18 05:33N 35°36' E 140°06'0 0.0
2016-Aug-18 04:33N 35°36' E 140°06'0 0.0
2016-Aug-18 03:33N 35°36' E 140°06'0 0.0
2016-Aug-18 02:33N 35°36' E 140°06'6 5.6
2016-Aug-18 01:33N 35°33' E 140°01'1 0.7
2016-Aug-18 00:33N 35°32' E 140°00'5 5.4
2016-Aug-17 23:33N 35°35' E 140°06'1 1.1
2016-Aug-17 22:33N 35°35' E 140°04'2 1.9
2016-Aug-17 21:33N 35°36' E 140°06'0 0.0
2016-Aug-17 20:33N 35°36' E 140°06'0 0.0
2016-Aug-17 19:34N 35°36' E 140°06'0 0.0
2016-Aug-17 18:33N 35°36' E 140°06'0 0.0
2016-Aug-17 17:34N 35°36' E 140°06'0 0.0
2016-Aug-17 16:33N 35°36' E 140°06'0 0.0
2016-Aug-17 15:34N 35°36' E 140°06'0 0.0
2016-Aug-17 14:33N 35°36' E 140°06'0 0.0
2016-Aug-17 13:34N 35°36' E 140°06'0 0.0
2016-Aug-17 12:33N 35°36' E 140°06'0 0.0
2016-Aug-17 11:33N 35°36' E 140°06'0 0.0
2016-Aug-17 10:33N 35°36' E 140°06'0 0.0
2016-Aug-17 09:34N 35°36' E 140°06'0 0.0
2016-Aug-17 08:33N 35°36' E 140°06'0 0.0
2016-Aug-17 07:33N 35°36' E 140°06'1 1.3
2016-Aug-17 06:34N 35°35' E 140°06'2 0.7
2016-Aug-17 03:33N 35°36' E 140°04'2 2.2
2016-Aug-17 02:33N 35°36' E 140°06'0 0.0
2016-Aug-17 01:33N 35°36' E 140°06'0 0.0
2016-Aug-17 00:34N 35°36' E 140°06'0 0.0
2016-Aug-16 23:33N 35°36' E 140°06'0 0.0
2016-Aug-16 22:33N 35°36' E 140°06'0 0.0
2016-Aug-16 21:33N 35°36' E 140°06'0 0.0
2016-Aug-16 20:33N 35°36' E 140°06'0 0.0
2016-Aug-16 19:33N 35°36' E 140°06'0 0.0
2016-Aug-16 18:34N 35°36' E 140°06'0 0.0
2016-Aug-16 17:33N 35°36' E 140°06'0 0.0
2016-Aug-16 16:33N 35°36' E 140°06'0 0.0
2016-Aug-16 15:33N 35°36' E 140°06'0 0.0
2016-Aug-16 14:33N 35°36' E 140°06'0 0.0
2016-Aug-16 13:33N 35°36' E 140°06'0 0.0
2016-Aug-16 12:33N 35°36' E 140°06'0 0.0
2016-Aug-16 10:09N 35°36' E 140°06'0 0.0
2016-Aug-16 09:33N 35°36' E 140°06'0 0.0
2016-Aug-16 08:33N 35°36' E 140°06'0 0.1
2016-Aug-16 07:34N 35°36' E 140°06'10 9.9
2016-Aug-16 06:33N 35°29' E 139°58'1 0.4
2016-Aug-16 04:33N 35°29' E 139°57'9 8.9
2016-Aug-16 03:33N 35°35' E 140°05'2 1.7
2016-Aug-16 02:34N 35°36' E 140°06'0 0.0
2016-Aug-16 01:33N 35°36' E 140°06'0 0.0
2016-Aug-16 00:33N 35°36' E 140°06'0 0.0
2016-Aug-15 23:34N 35°36' E 140°06'0 0.0
2016-Aug-15 22:33N 35°36' E 140°06'0 0.0
2016-Aug-15 21:33N 35°36' E 140°06'0 0.0
2016-Aug-15 20:33N 35°36' E 140°06'0 0.0
2016-Aug-15 19:33N 35°36' E 140°06'0 0.0
2016-Aug-15 18:33N 35°36' E 140°06'0 0.0
2016-Aug-15 17:33N 35°36' E 140°06'0 0.0
2016-Aug-15 16:33N 35°36' E 140°06'0 0.0
2016-Aug-15 15:33N 35°36' E 140°06'0 0.0
2016-Aug-15 14:33N 35°36' E 140°06'0 0.0
2016-Aug-15 13:33N 35°36' E 140°06'3 2.9
2016-Aug-15 12:33N 35°34' E 140°04'3 3.4
2016-Aug-15 11:33N 35°31' E 140°02'6 6.1
2016-Aug-15 10:33N 35°36' E 140°06'0 0.0
2016-Aug-15 09:33N 35°36' E 140°06'0 0.0
2016-Aug-15 08:33N 35°36' E 140°06'  
Track history (hours):
 
Tides and Currents Weather Stations Pressure Air Temp Water Temp Dewpoint Dewpoint Depression Visibility Wind Speed Wind Dir Waves Ship Positions

Akebono

Last reported at 2016-Aug-25 09:33 UTC. Time now 2016-Aug-25 09:45 UTC.
Position N 35°35' E 140°04'.

Length 33 m; draft 4.4 m.

Type: Tug. MMSI: 431000233.

Date/timePositionNaut miles runAvg speedWind from/ knotsBaromVisibWave heightAir tempDewpointWater temp
2016-Aug-25 09:33N 35°35' E 140°04'2 2.0
2016-Aug-25 08:33N 35°34' E 140°02'1 0.9
2016-Aug-25 07:33N 35°35' E 140°01'6 5.9
2016-Aug-25 06:33N 35°40' E 139°59'1 0.5
2016-Aug-25 04:33N 35°40' E 139°60'0 0.0
2016-Aug-25 03:33N 35°40' E 139°60'7 7.3
2016-Aug-25 02:34N 35°32' E 139°59'3 3.0
2016-Aug-25 01:33N 35°30' E 140°01'1 1.0
2016-Aug-25 00:33N 35°31' E 140°01'3 2.6
2016-Aug-24 23:33N 35°33' E 140°02'4 3.7
2016-Aug-24 22:33N 35°35' E 140°06'3 3.4
2016-Aug-24 21:33N 35°34' E 140°02'2 1.7
2016-Aug-24 20:33N 35°35' E 140°03'3 2.7
2016-Aug-24 19:33N 35°36' E 140°06'0 0.0
2016-Aug-24 18:33N 35°36' E 140°06'0 0.0
2016-Aug-24 17:33N 35°36' E 140°06'0 0.0
2016-Aug-24 16:33N 35°36' E 140°06'0 0.0
2016-Aug-24 15:33N 35°36' E 140°06'0 0.0
2016-Aug-24 14:33N 35°36' E 140°06'0 0.0
2016-Aug-24 13:33N 35°36' E 140°06'0 0.0
2016-Aug-24 12:33N 35°36' E 140°06'0 0.0
2016-Aug-24 11:33N 35°36' E 140°06'0 0.0
2016-Aug-24 10:33N 35°36' E 140°06'0 0.0
2016-Aug-24 09:33N 35°36' E 140°06'0 0.0
2016-Aug-24 08:33N 35°36' E 140°06'0 0.0
2016-Aug-24 07:33N 35°36' E 140°06'0 0.0
2016-Aug-24 06:33N 35°36' E 140°06'0 0.2
2016-Aug-24 04:33N 35°36' E 140°07'0 0.0
2016-Aug-24 03:33N 35°36' E 140°07'0 0.0
2016-Aug-24 02:33N 35°36' E 140°07'0 0.0
2016-Aug-24 01:33N 35°36' E 140°07'2 1.7
2016-Aug-24 00:33N 35°36' E 140°05'5 5.1
2016-Aug-23 23:33N 35°33' E 139°59'6 5.9
2016-Aug-23 22:33N 35°36' E 140°05'2 1.8
2016-Aug-23 21:33N 35°35' E 140°04'2 2.2
2016-Aug-23 20:33N 35°36' E 140°06'0 0.2
2016-Aug-23 19:33N 35°36' E 140°06'0 0.0
2016-Aug-23 18:33N 35°36' E 140°06'0 0.0
2016-Aug-23 17:33N 35°36' E 140°06'0 0.0
2016-Aug-23 16:33N 35°36' E 140°06'0 0.0
2016-Aug-23 15:33N 35°36' E 140°06'0 0.0
2016-Aug-23 14:33N 35°36' E 140°06'0 0.0
2016-Aug-23 13:33N 35°36' E 140°06'0 0.0
2016-Aug-23 12:33N 35°36' E 140°06'0 0.0
2016-Aug-23 11:33N 35°36' E 140°06'0 0.0
2016-Aug-23 10:33N 35°36' E 140°06'0 0.0
2016-Aug-23 09:33N 35°36' E 140°06'4 3.8
2016-Aug-23 08:33N 35°33' E 140°04'1 0.9
2016-Aug-23 07:33N 35°32' E 140°03'1 0.5
2016-Aug-23 06:33N 35°32' E 140°02'0 0.0
2016-Aug-23 05:33N 35°32' E 140°02'0 0.0
2016-Aug-23 04:33N 35°32' E 140°02'0 0.0
2016-Aug-23 03:33N 35°32' E 140°02'0 0.1
2016-Aug-23 02:33N 35°32' E 140°02'3 2.6
2016-Aug-23 01:33N 35°30' E 140°01'0 0.3
2016-Aug-23 00:33N 35°30' E 140°01'3 2.9
2016-Aug-22 23:33N 35°33' E 140°02'3 3.4
2016-Aug-22 22:33N 35°36' E 140°04'2 1.7
2016-Aug-22 21:34N 35°36' E 140°06'0 0.2
2016-Aug-22 20:33N 35°36' E 140°06'0 0.0
2016-Aug-22 19:33N 35°36' E 140°06'0 0.0
2016-Aug-22 18:33N 35°36' E 140°06'0 0.0
2016-Aug-22 17:33N 35°36' E 140°06'0 0.0
2016-Aug-22 16:33N 35°36' E 140°06'0 0.0
2016-Aug-22 15:33N 35°36' E 140°06'0 0.0
2016-Aug-22 14:33N 35°36' E 140°06'0 0.0
2016-Aug-22 13:34N 35°36' E 140°06'0 0.0
2016-Aug-22 11:19N 35°36' E 140°06'0 0.0
2016-Aug-22 10:33N 35°36' E 140°06'4 3.8
2016-Aug-22 09:33N 35°32' E 140°06'0 0.0
2016-Aug-22 08:33N 35°32' E 140°06'0 0.1
2016-Aug-22 07:33N 35°32' E 140°06'0 0.0
2016-Aug-22 06:33N 35°32' E 140°06'0 0.0
2016-Aug-22 05:33N 35°32' E 140°06'0 0.1
2016-Aug-22 04:33N 35°32' E 140°06'0 0.0
2016-Aug-22 03:33N 35°32' E 140°06'0 0.0
2016-Aug-22 02:33N 35°32' E 140°06'0 0.0
2016-Aug-22 01:33N 35°32' E 140°06'0 0.0
2016-Aug-22 00:34N 35°32' E 140°06'0 0.0
2016-Aug-21 23:34N 35°32' E 140°06'4 3.5
2016-Aug-21 22:33N 35°36' E 140°06'0 0.2
2016-Aug-21 21:34N 35°36' E 140°06'0 0.0
2016-Aug-21 20:33N 35°36' E 140°06'0 0.0
2016-Aug-21 19:33N 35°36' E 140°06'0 0.0
2016-Aug-21 18:34N 35°36' E 140°06'0 0.0
2016-Aug-21 17:33N 35°36' E 140°06'0 0.0
2016-Aug-21 16:33N 35°36' E 140°06'0 0.0
2016-Aug-21 15:34N 35°36' E 140°06'0 0.0
2016-Aug-21 14:33N 35°36' E 140°06'0 0.0
2016-Aug-21 13:34N 35°36' E 140°06'0 0.0
2016-Aug-21 12:33N 35°36' E 140°06'0 0.0
2016-Aug-21 11:34N 35°36' E 140°06'0 0.0
2016-Aug-21 10:33N 35°36' E 140°06'0 0.0
2016-Aug-21 09:34N 35°36' E 140°06'0 0.0
2016-Aug-21 08:34N 35°36' E 140°06'6 6.0
2016-Aug-21 07:33N 35°31' E 140°02'6 6.4
2016-Aug-21 06:34N 35°29' E 139°55'0 0.0
2016-Aug-21 05:34N 35°29' E 139°55'0 0.1
2016-Aug-21 04:34N 35°29' E 139°55'0 0.0
2016-Aug-21 03:34N 35°29' E 139°55'0 0.0
2016-Aug-21 02:34N 35°29' E 139°55'0 0.0
2016-Aug-21 01:33N 35°29' E 139°55'4 4.3
2016-Aug-21 00:33N 35°33' E 139°57'7 7.1
2016-Aug-20 23:33N 35°40' E 139°59'7 6.7
2016-Aug-20 22:33N 35°36' E 140°06'0 0.1
2016-Aug-20 21:33N 35°36' E 140°06'0 0.0
2016-Aug-20 20:33N 35°36' E 140°06'0 0.0
2016-Aug-20 19:33N 35°36' E 140°06'0 0.0
2016-Aug-20 18:33N 35°36' E 140°06'0 0.0
2016-Aug-20 17:33N 35°36' E 140°06'0 0.0
2016-Aug-20 16:33N 35°36' E 140°06'0 0.0
2016-Aug-20 15:33N 35°36' E 140°06'0 0.0
2016-Aug-20 14:33N 35°36' E 140°06'0 0.0
2016-Aug-20 13:33N 35°36' E 140°06'0 0.0
2016-Aug-20 12:33N 35°36' E 140°06'0 0.0
2016-Aug-20 07:33N 35°36' E 140°06'5 5.4
2016-Aug-20 06:33N 35°33' E 140°01'6 5.6
2016-Aug-20 05:33N 35°28' E 139°58'2 1.6
2016-Aug-20 04:33N 35°29' E 139°57'0 0.5
2016-Aug-20 03:33N 35°29' E 139°57'0 0.0
2016-Aug-20 02:33N 35°29' E 139°57'0 0.0
2016-Aug-20 01:33N 35°29' E 139°57'0 0.0
2016-Aug-20 00:33N 35°29' E 139°57'1 1.3
2016-Aug-19 23:33N 35°28' E 139°58'1010.0
2016-Aug-19 22:33N 35°35' E 140°06'1 0.7
2016-Aug-19 21:33N 35°36' E 140°06'0 0.0
2016-Aug-19 20:33N 35°36' E 140°06'0 0.0
2016-Aug-19 19:33N 35°36' E 140°06'0 0.0
2016-Aug-19 18:33N 35°36' E 140°06'0 0.0
2016-Aug-19 17:33N 35°36' E 140°06'0 0.0
2016-Aug-19 16:33N 35°36' E 140°06'0 0.0
2016-Aug-19 15:34N 35°36' E 140°06'0 0.0
2016-Aug-19 14:33N 35°36' E 140°06'0 0.0
2016-Aug-19 10:33N 35°36' E 140°06'1 1.3
2016-Aug-19 09:33N 35°35' E 140°05'1 1.1
2016-Aug-19 08:33N 35°36' E 140°05'2 1.6
2016-Aug-19 07:33N 35°35' E 140°04'0 0.0
2016-Aug-19 06:33N 35°35' E 140°04'0 0.0
2016-Aug-19 05:33N 35°35' E 140°04'0 0.0
2016-Aug-19 04:33N 35°35' E 140°04'0 0.0
2016-Aug-19 03:32N 35°35' E 140°04'0 0.0
2016-Aug-19 02:33N 35°35' E 140°04'3 2.8
2016-Aug-19 01:33N 35°32' E 140°05'2 2.5
2016-Aug-19 00:33N 35°34' E 140°03'4 3.7
2016-Aug-18 23:33N 35°36' E 140°06'0 0.0
2016-Aug-18 22:33N 35°36' E 140°06'0 0.0
2016-Aug-18 21:33N 35°36' E 140°06'0 0.0
2016-Aug-18 20:33N 35°36' E 140°06'0 0.0
2016-Aug-18 19:33N 35°36' E 140°06'0 0.0
2016-Aug-18 18:33N 35°36' E 140°06'0 0.0
2016-Aug-18 17:33N 35°36' E 140°06'0 0.0
2016-Aug-18 16:34N 35°36' E 140°06'0 0.0
2016-Aug-18 15:33N 35°36' E 140°06'0 0.0
2016-Aug-18 14:33N 35°36' E 140°06'0 0.0
2016-Aug-18 13:33N 35°36' E 140°06'0 0.0
2016-Aug-18 12:33N 35°36' E 140°06'0 0.0
2016-Aug-18 11:33N 35°36' E 140°06'0 0.0
2016-Aug-18 10:33N 35°36' E 140°06'0 0.0
2016-Aug-18 09:33N 35°36' E 140°06'0 0.0
2016-Aug-18 08:33N 35°36' E 140°06'0 0.0
2016-Aug-18 07:34N 35°36' E 140°06'0 0.0
2016-Aug-18 06:33N 35°36' E 140°06'0 0.0
2016-Aug-18 05:33N 35°36' E 140°06'0 0.0
2016-Aug-18 04:33N 35°36' E 140°06'0 0.0
2016-Aug-18 03:33N 35°36' E 140°06'0 0.0
2016-Aug-18 02:33N 35°36' E 140°06'6 5.6
2016-Aug-18 01:33N 35°33' E 140°01'1 0.7
2016-Aug-18 00:33N 35°32' E 140°00'5 5.4
2016-Aug-17 23:33N 35°35' E 140°06'1 1.1
2016-Aug-17 22:33N 35°35' E 140°04'2 1.9
2016-Aug-17 21:33N 35°36' E 140°06'0 0.0
2016-Aug-17 20:33N 35°36' E 140°06'0 0.0
2016-Aug-17 19:34N 35°36' E 140°06'0 0.0
2016-Aug-17 18:33N 35°36' E 140°06'0 0.0
2016-Aug-17 17:34N 35°36' E 140°06'0 0.0
2016-Aug-17 16:33N 35°36' E 140°06'0 0.0
2016-Aug-17 15:34N 35°36' E 140°06'0 0.0
2016-Aug-17 14:33N 35°36' E 140°06'0 0.0
2016-Aug-17 13:34N 35°36' E 140°06'0 0.0
2016-Aug-17 12:33N 35°36' E 140°06'0 0.0
2016-Aug-17 11:33N 35°36' E 140°06'0 0.0
2016-Aug-17 10:33N 35°36' E 140°06'0 0.0
2016-Aug-17 09:34N 35°36' E 140°06'0 0.0
2016-Aug-17 08:33N 35°36' E 140°06'0 0.0
2016-Aug-17 07:33N 35°36' E 140°06'1 1.3
2016-Aug-17 06:34N 35°35' E 140°06'2 0.7
2016-Aug-17 03:33N 35°36' E 140°04'2 2.2
2016-Aug-17 02:33N 35°36' E 140°06'0 0.0
2016-Aug-17 01:33N 35°36' E 140°06'0 0.0
2016-Aug-17 00:34N 35°36' E 140°06'0 0.0
2016-Aug-16 23:33N 35°36' E 140°06'0 0.0
2016-Aug-16 22:33N 35°36' E 140°06'0 0.0
2016-Aug-16 21:33N 35°36' E 140°06'0 0.0
2016-Aug-16 20:33N 35°36' E 140°06'0 0.0
2016-Aug-16 19:33N 35°36' E 140°06'0 0.0
2016-Aug-16 18:34N 35°36' E 140°06'0 0.0
2016-Aug-16 17:33N 35°36' E 140°06'0 0.0
2016-Aug-16 16:33N 35°36' E 140°06'0 0.0
2016-Aug-16 15:33N 35°36' E 140°06'0 0.0
2016-Aug-16 14:33N 35°36' E 140°06'0 0.0
2016-Aug-16 13:33N 35°36' E 140°06'0 0.0
2016-Aug-16 12:33N 35°36' E 140°06'0 0.0
2016-Aug-16 10:09N 35°36' E 140°06'0 0.0
2016-Aug-16 09:33N 35°36' E 140°06'0 0.0
2016-Aug-16 08:33N 35°36' E 140°06'0 0.1
2016-Aug-16 07:34N 35°36' E 140°06'10 9.9
2016-Aug-16 06:33N 35°29' E 139°58'1 0.4
2016-Aug-16 04:33N 35°29' E 139°57'9 8.9
2016-Aug-16 03:33N 35°35' E 140°05'2 1.7
2016-Aug-16 02:34N 35°36' E 140°06'0 0.0
2016-Aug-16 01:33N 35°36' E 140°06'0 0.0
2016-Aug-16 00:33N 35°36' E 140°06'0 0.0
2016-Aug-15 23:34N 35°36' E 140°06'0 0.0
2016-Aug-15 22:33N 35°36' E 140°06'0 0.0
2016-Aug-15 21:33N 35°36' E 140°06'0 0.0
2016-Aug-15 20:33N 35°36' E 140°06'0 0.0
2016-Aug-15 19:33N 35°36' E 140°06'0 0.0
2016-Aug-15 18:33N 35°36' E 140°06'0 0.0
2016-Aug-15 17:33N 35°36' E 140°06'0 0.0
2016-Aug-15 16:33N 35°36' E 140°06'0 0.0
2016-Aug-15 15:33N 35°36' E 140°06'0 0.0
2016-Aug-15 14:33N 35°36' E 140°06'0 0.0
2016-Aug-15 13:33N 35°36' E 140°06'3 2.9
2016-Aug-15 12:33N 35°34' E 140°04'3 3.4
2016-Aug-15 11:33N 35°31' E 140°02'6 6.1
2016-Aug-15 10:33N 35°36' E 140°06'0 0.0
2016-Aug-15 09:33N 35°36' E 140°06'0 0.0
2016-Aug-15 08:33N 35°36' E 140°06'  

Dump ship's entire track history